Time;durP1;ratioP1;P1;durP2;ratioP2;P2;SDS_P1;SDS_P2;PMS_P1;PMS_P2;Temp;Humidity;BMP_temperature;BMP_pressure;BME280_temperature;BME280_humidity;BME280_pressure;Samples;Min_cycle;Max_cycle;Signal;HPM_P1;HPM_P2
2023/03/18 00:00:46;;;;;;;5.03;1.65;;;;;;;;;;5094670;28;20078;-62
2023/03/18 00:03:15;;;;;;;1.35;1.25;;;;;;;;;;5096817;28;20492;-63
2023/03/18 00:05:44;;;;;;;7.22;2.30;;;;;;;;;;5094642;28;20055;-62
2023/03/18 00:08:12;;;;;;;2.92;0.90;;;;;;;;;;5103917;27;20071;-63
2023/03/18 00:10:40;;;;;;;3.30;2.28;;;;;;;;;;5099374;28;20052;-63
2023/03/18 00:13:09;;;;;;;2.70;1.17;;;;;;;;;;5099203;28;20047;-64
2023/03/18 00:15:37;;;;;;;5.63;1.63;;;;;;;;;;5099062;28;20488;-63
2023/03/18 00:18:07;;;;;;;4.50;1.33;;;;;;;;;;5099578;27;20079;-63
2023/03/18 00:20:39;;;;;;;1.55;1.30;;;;;;;;;;5097448;28;20043;-63
2023/03/18 00:23:08;;;;;;;6.05;2.45;;;;;;;;;;5100904;28;20048;-62
2023/03/18 00:25:37;;;;;;;2.45;1.20;;;;;;;;;;5097647;28;20051;-63
2023/03/18 00:28:06;;;;;;;3.42;2.17;;;;;;;;;;5092308;27;20036;-64
2023/03/18 00:30:35;;;;;;;4.72;1.83;;;;;;;;;;5093931;27;20036;-64
2023/03/18 00:33:03;;;;;;;7.07;1.83;;;;;;;;;;5090135;28;20669;-63
2023/03/18 00:35:35;;;;;;;3.83;1.05;;;;;;;;;;5100997;27;20149;-62
2023/03/18 00:38:06;;;;;;;2.42;1.65;;;;;;;;;;5094256;27;20362;-63
2023/03/18 00:40:52;;;;;;;2.45;1.55;;;;;;;;;;5092557;28;20550;-63
2023/03/18 00:43:21;;;;;;;3.25;1.98;;;;;;;;;;5094513;28;20082;-63
2023/03/18 00:45:50;;;;;;;1.20;0.95;;;;;;;;;;5098400;27;20055;-63
2023/03/18 00:48:18;;;;;;;2.08;0.98;;;;;;;;;;5093281;27;20039;-64
2023/03/18 00:50:48;;;;;;;2.47;1.20;;;;;;;;;;5096762;28;20036;-63
2023/03/18 00:53:17;;;;;;;2.08;1.05;;;;;;;;;;5099911;28;20437;-62
2023/03/18 00:55:45;;;;;;;3.53;1.45;;;;;;;;;;5100543;28;20052;-63
2023/03/18 00:58:14;;;;;;;2.03;1.20;;;;;;;;;;5098056;27;20430;-64
2023/03/18 01:00:42;;;;;;;4.75;1.23;;;;;;;;;;5098521;27;20051;-64
2023/03/18 01:03:10;;;;;;;2.72;1.45;;;;;;;;;;5098074;28;20062;-63
2023/03/18 01:05:38;;;;;;;5.13;1.33;;;;;;;;;;5095157;28;20050;-63
2023/03/18 01:08:08;;;;;;;6.18;1.48;;;;;;;;;;5093177;28;20044;-63
2023/03/18 01:10:36;;;;;;;2.45;1.42;;;;;;;;;;5099573;28;20134;-64
2023/03/18 01:13:04;;;;;;;1.55;1.08;;;;;;;;;;5099028;27;20058;-63
2023/03/18 01:15:33;;;;;;;2.30;1.35;;;;;;;;;;5098360;28;20039;-65
2023/03/18 01:18:02;;;;;;;5.78;0.98;;;;;;;;;;5098801;27;20059;-62
2023/03/18 01:20:31;;;;;;;3.33;1.13;;;;;;;;;;5099317;28;20061;-64
2023/03/18 01:23:00;;;;;;;3.67;1.50;;;;;;;;;;5091335;28;20078;-62
2023/03/18 01:25:29;;;;;;;3.95;2.17;;;;;;;;;;5100999;28;20452;-62
2023/03/18 01:27:58;;;;;;;1.20;0.95;;;;;;;;;;5094544;27;20494;-63
2023/03/18 01:30:27;;;;;;;1.23;1.13;;;;;;;;;;5103121;28;20046;-62
2023/03/18 01:32:55;;;;;;;1.90;1.15;;;;;;;;;;5094466;28;20097;-62
2023/03/18 01:35:25;;;;;;;3.03;1.23;;;;;;;;;;5095078;28;20044;-63
2023/03/18 01:37:54;;;;;;;1.38;1.02;;;;;;;;;;5094692;28;20075;-63
2023/03/18 01:40:22;;;;;;;3.25;1.00;;;;;;;;;;5099123;28;20090;-66
2023/03/18 01:42:56;;;;;;;1.15;1.10;;;;;;;;;;5096409;28;20050;-62
2023/03/18 01:45:27;;;;;;;1.98;0.77;;;;;;;;;;5095495;28;20496;-62
2023/03/18 01:47:56;;;;;;;2.47;1.45;;;;;;;;;;5099055;28;20194;-63
2023/03/18 01:50:26;;;;;;;3.38;1.63;;;;;;;;;;5095726;28;20051;-64
2023/03/18 01:52:57;;;;;;;1.02;0.93;;;;;;;;;;5095151;28;20044;-63
2023/03/18 01:55:26;;;;;;;1.15;1.02;;;;;;;;;;5099130;28;20056;-62
2023/03/18 01:57:56;;;;;;;2.58;1.23;;;;;;;;;;5097814;28;20066;-65
2023/03/18 02:00:25;;;;;;;2.55;1.50;;;;;;;;;;5096616;28;20047;-63
2023/03/18 02:02:53;;;;;;;2.20;1.17;;;;;;;;;;5096252;28;20064;-65
2023/03/18 02:05:23;;;;;;;2.58;1.65;;;;;;;;;;5090827;28;20054;-62
2023/03/18 02:07:51;;;;;;;2.15;0.93;;;;;;;;;;5093030;28;20514;-63
2023/03/18 02:10:20;;;;;;;1.40;0.73;;;;;;;;;;5090359;28;20048;-64
2023/03/18 02:12:51;;;;;;;2.67;1.45;;;;;;;;;;5100905;28;20035;-62
2023/03/18 02:15:22;;;;;;;3.20;1.52;;;;;;;;;;5097520;28;20067;-62
2023/03/18 02:17:55;;;;;;;3.75;1.15;;;;;;;;;;5093954;28;20039;-64
2023/03/18 02:20:36;;;;;;;4.18;0.88;;;;;;;;;;5091924;28;20064;-62
2023/03/18 02:23:08;;;;;;;4.68;1.92;;;;;;;;;;5094436;28;20059;-62
2023/03/18 02:25:40;;;;;;;6.72;1.67;;;;;;;;;;5091359;28;20043;-65
2023/03/18 02:28:11;;;;;;;1.10;0.70;;;;;;;;;;5097177;28;20057;-62
2023/03/18 02:30:42;;;;;;;2.45;1.42;;;;;;;;;;5091086;28;20151;-63
2023/03/18 02:33:11;;;;;;;1.63;1.23;;;;;;;;;;5093227;28;20052;-64
2023/03/18 02:35:39;;;;;;;1.05;0.98;;;;;;;;;;5098162;28;20055;-63
2023/03/18 02:38:08;;;;;;;7.93;1.33;;;;;;;;;;5099134;28;20071;-62
2023/03/18 02:40:37;;;;;;;2.00;0.93;;;;;;;;;;5096516;28;20043;-65
2023/03/18 02:43:20;;;;;;;2.60;1.33;;;;;;;;;;5101416;28;20047;-62
2023/03/18 02:45:55;;;;;;;1.65;1.05;;;;;;;;;;5096760;28;20043;-63
2023/03/18 02:48:23;;;;;;;;;;;;;;;;;;5096135;28;20470;-63
2023/03/18 02:50:52;;;;;;;0.68;0.68;;;;;;;;;;5097144;28;19935;-63
2023/03/18 02:53:21;;;;;;;4.68;0.93;;;;;;;;;;5097304;28;20050;-64
2023/03/18 02:55:49;;;;;;;2.15;1.33;;;;;;;;;;5096702;28;20047;-63
2023/03/18 02:58:17;;;;;;;4.53;2.13;;;;;;;;;;5100269;28;20044;-63
2023/03/18 03:00:47;;;;;;;0.95;0.95;;;;;;;;;;5099654;27;20047;-66
2023/03/18 03:03:15;;;;;;;3.22;1.30;;;;;;;;;;5100889;27;20047;-64
2023/03/18 03:05:43;;;;;;;5.22;1.17;;;;;;;;;;5098496;28;20408;-64
2023/03/18 03:08:12;;;;;;;2.03;1.40;;;;;;;;;;5095607;28;20503;-64
2023/03/18 03:10:40;;;;;;;1.85;1.33;;;;;;;;;;5099844;27;20047;-64
2023/03/18 03:13:09;;;;;;;11.63;1.52;;;;;;;;;;5102398;28;20511;-64
2023/03/18 03:15:37;;;;;;;2.13;1.45;;;;;;;;;;5099140;27;20044;-65
2023/03/18 03:18:08;;;;;;;3.47;1.20;;;;;;;;;;5101698;28;20048;-64
2023/03/18 03:20:37;;;;;;;1.42;1.20;;;;;;;;;;5101669;27;20059;-64
2023/03/18 03:23:06;;;;;;;1.98;0.85;;;;;;;;;;5098074;28;20050;-64
2023/03/18 03:25:34;;;;;;;0.98;0.88;;;;;;;;;;5098425;28;20475;-64
2023/03/18 03:28:03;;;;;;;0.88;0.80;;;;;;;;;;5097939;28;20044;-64
2023/03/18 03:30:31;;;;;;;1.55;1.08;;;;;;;;;;5098597;27;20071;-64
2023/03/18 03:33:00;;;;;;;1.67;1.40;;;;;;;;;;5101679;27;20044;-62
2023/03/18 03:35:30;;;;;;;3.88;1.13;;;;;;;;;;5098819;27;20064;-64
2023/03/18 03:37:58;;;;;;;1.08;0.98;;;;;;;;;;5095112;28;20503;-62
2023/03/18 03:40:27;;;;;;;1.52;1.42;;;;;;;;;;5099687;28;20047;-64
2023/03/18 03:42:56;;;;;;;1.48;1.02;;;;;;;;;;5092755;28;20051;-62
2023/03/18 03:45:24;;;;;;;0.93;0.93;;;;;;;;;;5096928;28;21102;-62
2023/03/18 03:47:52;;;;;;;1.50;0.80;;;;;;;;;;5099054;28;20051;-64
2023/03/18 03:50:21;;;;;;;1.95;1.05;;;;;;;;;;5101621;27;20040;-63
2023/03/18 03:52:51;;;;;;;2.92;2.50;;;;;;;;;;5096169;28;20044;-65
2023/03/18 03:55:21;;;;;;;0.98;0.82;;;;;;;;;;5096749;27;20047;-62
2023/03/18 03:57:50;;;;;;;0.50;0.50;;;;;;;;;;5096537;27;20063;-62
2023/03/18 04:00:20;;;;;;;1.90;1.20;;;;;;;;;;5101293;27;20047;-62
2023/03/18 04:02:49;;;;;;;0.82;0.40;;;;;;;;;;5099075;28;20040;-63
2023/03/18 04:05:19;;;;;;;11.00;1.25;;;;;;;;;;5096493;27;20036;-65
2023/03/18 04:07:48;;;;;;;1.50;0.88;;;;;;;;;;5098236;28;20051;-62
2023/03/18 04:10:19;;;;;;;5.70;1.83;;;;;;;;;;5097832;27;20385;-62
2023/03/18 04:12:48;;;;;;;3.05;0.98;;;;;;;;;;5096891;27;20510;-63
2023/03/18 04:15:17;;;;;;;1.08;0.75;;;;;;;;;;5096810;28;20122;-62
2023/03/18 04:17:45;;;;;;;2.88;1.52;;;;;;;;;;5095027;28;20043;-63
2023/03/18 04:20:15;;;;;;;0.70;0.70;;;;;;;;;;5098475;27;20056;-63
2023/03/18 04:22:44;;;;;;;2.20;1.08;;;;;;;;;;5091590;28;20997;-65
2023/03/18 04:25:13;;;;;;;3.20;1.60;;;;;;;;;;5095276;28;20047;-63
2023/03/18 04:27:43;;;;;;;0.68;0.65;;;;;;;;;;5095160;28;20044;-63
2023/03/18 04:30:12;;;;;;;0.95;0.75;;;;;;;;;;5093580;28;20051;-63
2023/03/18 04:32:40;;;;;;;1.63;0.93;;;;;;;;;;5099812;27;20063;-63
2023/03/18 04:35:10;;;;;;;0.88;0.77;;;;;;;;;;5093615;28;20108;-63
2023/03/18 04:37:38;;;;;;;3.13;1.48;;;;;;;;;;5094561;28;20039;-63
2023/03/18 04:40:07;;;;;;;3.05;1.83;;;;;;;;;;5100947;28;20048;-63
2023/03/18 04:42:35;;;;;;;1.83;1.25;;;;;;;;;;5099078;27;20427;-65
2023/03/18 04:45:05;;;;;;;0.52;0.52;;;;;;;;;;5095492;28;20048;-63
2023/03/18 04:47:34;;;;;;;1.10;0.80;;;;;;;;;;5092305;27;20048;-63
2023/03/18 04:50:04;;;;;;;2.45;1.08;;;;;;;;;;5097136;27;20047;-63
2023/03/18 04:52:32;;;;;;;4.03;1.58;;;;;;;;;;5095241;27;20048;-64
2023/03/18 04:55:00;;;;;;;1.30;1.00;;;;;;;;;;5095860;28;20124;-63
2023/03/18 04:57:29;;;;;;;1.85;1.20;;;;;;;;;;5096396;28;20071;-62
2023/03/18 04:59:57;;;;;;;0.75;0.55;;;;;;;;;;5098741;27;20047;-62
2023/03/18 05:02:27;;;;;;;1.50;0.70;;;;;;;;;;5088946;27;20048;-62
2023/03/18 05:04:56;;;;;;;2.10;0.68;;;;;;;;;;5097494;28;20036;-63
2023/03/18 05:07:25;;;;;;;1.20;1.10;;;;;;;;;;5100140;28;20050;-63
2023/03/18 05:09:53;;;;;;;7.78;1.58;;;;;;;;;;5094957;28;20049;-63
2023/03/18 05:12:21;;;;;;;1.50;1.15;;;;;;;;;;5096026;28;20782;-63
2023/03/18 05:14:50;;;;;;;2.13;1.23;;;;;;;;;;5100960;28;20050;-64
2023/03/18 05:17:18;;;;;;;1.65;0.75;;;;;;;;;;5096789;27;20126;-64
2023/03/18 05:19:48;;;;;;;0.40;0.40;;;;;;;;;;5096719;28;20055;-63
2023/03/18 05:22:18;;;;;;;1.70;1.30;;;;;;;;;;5093872;28;20040;-63
2023/03/18 05:24:47;;;;;;;1.02;0.57;;;;;;;;;;5093886;28;20044;-62
2023/03/18 05:27:17;;;;;;;1.63;1.10;;;;;;;;;;5098842;28;20054;-63
2023/03/18 05:29:45;;;;;;;1.27;0.75;;;;;;;;;;5101445;28;20471;-63
2023/03/18 05:32:15;;;;;;;2.83;1.73;;;;;;;;;;5092986;28;20051;-64
2023/03/18 05:34:44;;;;;;;0.80;0.60;;;;;;;;;;5100814;28;20425;-62
2023/03/18 05:37:14;;;;;;;0.90;0.88;;;;;;;;;;5097660;28;20760;-64
2023/03/18 05:39:44;;;;;;;0.50;0.50;;;;;;;;;;5093621;28;20040;-65
2023/03/18 05:42:13;;;;;;;1.67;1.15;;;;;;;;;;5097498;28;20043;-63
2023/03/18 05:44:41;;;;;;;3.83;1.23;;;;;;;;;;5100286;28;20047;-62
2023/03/18 05:47:10;;;;;;;1.85;1.25;;;;;;;;;;5095200;28;20198;-63
2023/03/18 05:49:38;;;;;;;0.80;0.80;;;;;;;;;;5094037;28;20059;-62
2023/03/18 05:52:06;;;;;;;0.57;0.57;;;;;;;;;;5104464;28;20127;-63
2023/03/18 05:54:37;;;;;;;0.68;0.68;;;;;;;;;;5094844;28;20542;-63
2023/03/18 05:57:06;;;;;;;1.00;0.77;;;;;;;;;;5098702;28;20066;-63
2023/03/18 05:59:34;;;;;;;2.10;1.25;;;;;;;;;;5097190;28;20048;-63
2023/03/18 06:02:03;;;;;;;2.15;0.73;;;;;;;;;;5097630;28;20418;-63
2023/03/18 06:04:31;;;;;;;0.93;0.73;;;;;;;;;;5091607;28;20052;-63
2023/03/18 06:07:00;;;;;;;0.45;0.45;;;;;;;;;;5101005;28;20587;-61
2023/03/18 06:09:28;;;;;;;1.50;1.40;;;;;;;;;;5092488;28;20369;-63
2023/03/18 06:11:57;;;;;;;3.20;1.05;;;;;;;;;;5093666;28;20047;-62
2023/03/18 06:14:28;;;;;;;0.38;0.32;;;;;;;;;;5097246;28;20047;-62
2023/03/18 06:16:56;;;;;;;0.63;0.60;;;;;;;;;;5101440;27;20048;-62
2023/03/18 06:19:24;;;;;;;3.55;1.27;;;;;;;;;;5103125;27;20161;-62
2023/03/18 06:21:53;;;;;;;0.90;0.90;;;;;;;;;;5099070;28;20048;-63
2023/03/18 06:24:21;;;;;;;1.13;0.88;;;;;;;;;;5098228;28;20055;-62
2023/03/18 06:26:50;;;;;;;2.72;0.93;;;;;;;;;;5100662;28;20056;-65
2023/03/18 06:29:20;;;;;;;1.98;1.65;;;;;;;;;;5099427;28;20047;-63
2023/03/18 06:31:48;;;;;;;1.60;1.08;;;;;;;;;;5100682;27;20044;-63
2023/03/18 06:34:16;;;;;;;2.17;0.93;;;;;;;;;;5104245;28;20055;-62
2023/03/18 06:36:45;;;;;;;2.38;1.58;;;;;;;;;;5096804;28;20076;-63
2023/03/18 06:39:13;;;;;;;2.67;1.58;;;;;;;;;;5103842;28;20044;-63
2023/03/18 06:41:42;;;;;;;5.35;1.25;;;;;;;;;;5099663;27;20556;-65
2023/03/18 06:44:12;;;;;;;2.67;1.55;;;;;;;;;;5101674;28;20043;-65
2023/03/18 06:46:41;;;;;;;0.95;0.90;;;;;;;;;;5104256;28;20040;-63
2023/03/18 06:49:11;;;;;;;0.50;0.50;;;;;;;;;;5099902;27;20055;-63
2023/03/18 06:51:39;;;;;;;0.77;0.73;;;;;;;;;;5100321;27;20047;-63
2023/03/18 06:54:08;;;;;;;0.75;0.75;;;;;;;;;;5094860;27;20393;-65
2023/03/18 06:56:37;;;;;;;0.90;0.80;;;;;;;;;;5100545;28;20044;-63
2023/03/18 06:59:06;;;;;;;3.33;0.90;;;;;;;;;;5093894;28;20036;-63
2023/03/18 07:01:35;;;;;;;2.75;1.05;;;;;;;;;;5094042;28;20067;-64
2023/03/18 07:04:07;;;;;;;3.25;0.90;;;;;;;;;;5088092;27;20489;-63
2023/03/18 07:06:36;;;;;;;0.60;0.52;;;;;;;;;;5094416;28;20156;-63
2023/03/18 07:09:05;;;;;;;2.03;1.20;;;;;;;;;;5101273;27;20051;-66
2023/03/18 07:11:33;;;;;;;0.90;0.90;;;;;;;;;;5094928;27;20293;-63
2023/03/18 07:14:01;;;;;;;1.25;1.05;;;;;;;;;;5097478;28;21009;-63
2023/03/18 07:16:30;;;;;;;0.70;0.70;;;;;;;;;;5093008;28;20055;-64
2023/03/18 07:18:59;;;;;;;1.02;1.00;;;;;;;;;;5101576;27;20082;-64
2023/03/18 07:21:28;;;;;;;1.52;0.82;;;;;;;;;;5092978;27;20056;-64
2023/03/18 07:23:57;;;;;;;2.28;0.90;;;;;;;;;;5095462;28;20074;-64
2023/03/18 07:26:26;;;;;;;2.38;1.05;;;;;;;;;;5096436;28;20043;-63
2023/03/18 07:28:55;;;;;;;0.90;0.90;;;;;;;;;;5094224;28;20048;-63
2023/03/18 07:31:24;;;;;;;2.72;1.02;;;;;;;;;;5093960;28;20643;-64
2023/03/18 07:33:52;;;;;;;1.38;0.75;;;;;;;;;;5098392;27;20040;-65
2023/03/18 07:36:20;;;;;;;0.73;0.65;;;;;;;;;;5094909;27;20048;-64
2023/03/18 07:38:50;;;;;;;1.70;0.93;;;;;;;;;;5091366;28;20058;-63
2023/03/18 07:41:18;;;;;;;0.60;0.60;;;;;;;;;;5095202;27;20129;-63
2023/03/18 07:43:47;;;;;;;2.67;0.93;;;;;;;;;;5094687;28;20051;-64
2023/03/18 07:46:15;;;;;;;0.88;0.57;;;;;;;;;;5094507;28;20484;-63
2023/03/18 07:48:43;;;;;;;0.88;0.80;;;;;;;;;;5092054;28;20052;-63
2023/03/18 07:51:12;;;;;;;1.73;1.10;;;;;;;;;;5095843;27;20047;-64
2023/03/18 07:53:40;;;;;;;2.97;0.98;;;;;;;;;;5091020;28;20052;-63
2023/03/18 07:56:10;;;;;;;2.75;0.63;;;;;;;;;;5095197;28;20040;-63
2023/03/18 07:58:38;;;;;;;1.73;0.60;;;;;;;;;;5098252;28;20058;-63
2023/03/18 08:01:08;;;;;;;1.08;0.57;;;;;;;;;;5095930;28;20047;-63
2023/03/18 08:03:37;;;;;;;0.82;0.82;;;;;;;;;;5091530;28;20047;-63
2023/03/18 08:06:06;;;;;;;2.42;1.08;;;;;;;;;;5090416;27;20051;-64
2023/03/18 08:08:35;;;;;;;3.88;1.23;;;;;;;;;;5090441;27;20070;-64
2023/03/18 08:11:03;;;;;;;2.85;0.70;;;;;;;;;;5096280;28;20670;-63
2023/03/18 08:13:33;;;;;;;1.55;0.73;;;;;;;;;;5098197;28;20043;-64
2023/03/18 08:16:01;;;;;;;9.02;0.88;;;;;;;;;;5096132;28;20050;-64
2023/03/18 08:18:30;;;;;;;0.60;0.57;;;;;;;;;;5097143;27;20052;-64
2023/03/18 08:20:58;;;;;;;0.82;0.63;;;;;;;;;;5096404;27;20056;-63
2023/03/18 08:23:26;;;;;;;1.35;0.47;;;;;;;;;;5094527;28;20059;-63
2023/03/18 08:25:55;;;;;;;1.20;0.85;;;;;;;;;;5093959;28;20051;-64
2023/03/18 08:28:23;;;;;;;2.03;0.75;;;;;;;;;;5094126;28;20208;-63
2023/03/18 08:30:55;;;;;;;0.77;0.70;;;;;;;;;;5093296;28;20051;-63
2023/03/18 08:33:24;;;;;;;0.98;0.63;;;;;;;;;;5092466;28;20062;-63
2023/03/18 08:35:52;;;;;;;0.43;0.43;;;;;;;;;;5092567;27;20051;-63
2023/03/18 08:38:20;;;;;;;10.05;0.88;;;;;;;;;;5092621;27;20071;-64
2023/03/18 08:40:49;;;;;;;1.83;0.85;;;;;;;;;;5096078;28;20079;-64
2023/03/18 08:43:17;;;;;;;0.80;0.57;;;;;;;;;;5097763;27;20044;-63
2023/03/18 08:45:46;;;;;;;1.20;0.45;;;;;;;;;;5093553;27;20632;-64
2023/03/18 08:48:15;;;;;;;2.10;0.80;;;;;;;;;;5094617;28;20048;-63
2023/03/18 08:50:44;;;;;;;1.58;0.50;;;;;;;;;;5094741;27;20044;-64
2023/03/18 08:53:12;;;;;;;0.30;0.30;;;;;;;;;;5091299;28;20052;-65
2023/03/18 08:55:40;;;;;;;1.27;0.80;;;;;;;;;;5095785;27;20051;-65
2023/03/18 08:58:09;;;;;;;0.60;0.40;;;;;;;;;;5095831;28;20508;-64
2023/03/18 09:00:39;;;;;;;1.48;0.80;;;;;;;;;;5093453;28;20052;-64
2023/03/18 09:03:08;;;;;;;2.63;0.50;;;;;;;;;;5090771;27;20059;-63
2023/03/18 09:05:39;;;;;;;1.48;0.70;;;;;;;;;;5093785;27;20836;-62
2023/03/18 09:08:07;;;;;;;0.88;0.60;;;;;;;;;;5091597;28;20066;-63
2023/03/18 09:10:35;;;;;;;2.65;0.80;;;;;;;;;;5096827;28;20055;-63
2023/03/18 09:13:04;;;;;;;1.33;0.82;;;;;;;;;;5095161;28;20047;-62
2023/03/18 09:15:32;;;;;;;0.75;0.75;;;;;;;;;;5090405;28;20400;-62
2023/03/18 09:18:02;;;;;;;2.42;0.70;;;;;;;;;;5097173;28;20049;-63
2023/03/18 09:20:41;;;;;;;0.85;0.50;;;;;;;;;;5091545;27;20052;-66
2023/03/18 09:23:10;;;;;;;2.08;0.90;;;;;;;;;;5096721;27;20048;-65
2023/03/18 09:25:38;;;;;;;1.10;0.68;;;;;;;;;;5092160;28;20134;-62
2023/03/18 09:28:07;;;;;;;3.08;0.57;;;;;;;;;;5094507;28;21094;-63
2023/03/18 09:30:35;;;;;;;0.85;0.50;;;;;;;;;;5096888;28;20038;-62
2023/03/18 09:33:05;;;;;;;1.80;0.65;;;;;;;;;;5096286;28;20138;-66
2023/03/18 09:35:35;;;;;;;0.57;0.55;;;;;;;;;;5092158;28;20071;-63
2023/03/18 09:38:05;;;;;;;1.02;0.57;;;;;;;;;;5090185;28;20069;-65
2023/03/18 09:40:35;;;;;;;1.10;0.50;;;;;;;;;;5093590;28;20043;-64
2023/03/18 09:43:11;;;;;;;0.63;0.50;;;;;;;;;;5094814;28;20477;-64
2023/03/18 09:45:43;;;;;;;0.30;0.28;;;;;;;;;;5094621;28;20047;-65
2023/03/18 09:48:33;;;;;;;2.83;0.45;;;;;;;;;;5095717;28;20046;-64
2023/03/18 09:51:04;;;;;;;1.17;0.93;;;;;;;;;;5095459;27;20082;-64
2023/03/18 09:53:38;;;;;;;0.45;0.30;;;;;;;;;;5092657;27;20412;-64
2023/03/18 09:56:12;;;;;;;3.35;0.73;;;;;;;;;;5094424;28;20510;-64
2023/03/18 09:58:46;;;;;;;2.27;0.87;;;;;;;;;;5096667;28;20057;-65
2023/03/18 10:01:15;;;;;;;1.48;0.80;;;;;;;;;;5097861;28;20355;-64
2023/03/18 10:03:46;;;;;;;0.88;0.60;;;;;;;;;;5099831;27;20066;-65
2023/03/18 10:06:17;;;;;;;1.63;0.73;;;;;;;;;;5091861;27;20043;-65
2023/03/18 10:08:50;;;;;;;0.50;0.50;;;;;;;;;;5095827;28;20087;-64
2023/03/18 10:11:22;;;;;;;3.40;0.70;;;;;;;;;;5095066;27;20044;-66
2023/03/18 10:13:56;;;;;;;1.73;0.93;;;;;;;;;;5094167;28;20511;-64
2023/03/18 10:16:27;;;;;;;2.22;0.93;;;;;;;;;;5096193;28;20557;-65
2023/03/18 10:18:56;;;;;;;1.50;0.95;;;;;;;;;;5099176;28;20161;-66
2023/03/18 10:21:31;;;;;;;3.13;0.68;;;;;;;;;;5092549;27;20052;-62
2023/03/18 10:24:05;;;;;;;3.95;0.70;;;;;;;;;;5095266;28;20056;-62
2023/03/18 10:26:34;;;;;;;;;;;;;;;;;;5095312;28;20051;-66
2023/03/18 10:29:19;;;;;;;0.75;0.73;;;;;;;;;;5097798;28;20372;-65
2023/03/18 10:31:51;;;;;;;0.75;0.57;;;;;;;;;;5095084;27;20493;-63
2023/03/18 10:34:22;;;;;;;1.92;0.68;;;;;;;;;;5098910;28;20052;-63
2023/03/18 10:36:51;;;;;;;1.67;0.40;;;;;;;;;;5095001;27;20047;-63
2023/03/18 10:39:23;;;;;;;1.27;0.60;;;;;;;;;;5100209;28;20078;-66
2023/03/18 10:41:53;;;;;;;1.17;0.32;;;;;;;;;;5096315;28;20748;-63
2023/03/18 10:44:23;;;;;;;0.95;0.40;;;;;;;;;;5100087;28;20055;-65
2023/03/18 10:47:00;;;;;;;1.02;0.40;;;;;;;;;;5098208;27;20058;-63
2023/03/18 10:49:30;;;;;;;1.35;0.40;;;;;;;;;;5096460;28;20054;-64
2023/03/18 10:52:00;;;;;;;0.70;0.50;;;;;;;;;;5093073;27;20052;-64
2023/03/18 10:54:33;;;;;;;1.92;0.70;;;;;;;;;;5091901;28;20139;-65
2023/03/18 10:57:01;;;;;;;0.50;0.50;;;;;;;;;;5099698;28;20040;-65
2023/03/18 10:59:30;;;;;;;4.68;0.85;;;;;;;;;;5095640;27;20051;-65
2023/03/18 11:02:00;;;;;;;2.58;1.08;;;;;;;;;;5094614;28;20051;-65
2023/03/18 11:04:29;;;;;;;3.72;0.75;;;;;;;;;;5094584;28;20057;-65
2023/03/18 11:06:59;;;;;;;0.95;0.40;;;;;;;;;;5093794;27;20039;-65
2023/03/18 11:09:31;;;;;;;0.80;0.38;;;;;;;;;;5094824;27;20051;-65
2023/03/18 11:12:04;;;;;;;1.27;0.80;;;;;;;;;;5095914;28;20047;-65
2023/03/18 11:14:33;;;;;;;1.52;0.40;;;;;;;;;;5089114;28;20052;-66
2023/03/18 11:17:03;;;;;;;0.85;0.35;;;;;;;;;;5096512;28;20047;-66
2023/03/18 11:19:32;;;;;;;3.17;0.77;;;;;;;;;;5094884;27;20060;-65
2023/03/18 11:22:03;;;;;;;1.65;0.75;;;;;;;;;;5097877;27;20051;-66
2023/03/18 11:24:38;;;;;;;0.40;0.40;;;;;;;;;;5091113;28;20063;-66
2023/03/18 11:27:23;;;;;;;4.55;1.40;;;;;;;;;;5096549;28;20043;-66
2023/03/18 11:29:54;;;;;;;3.28;1.00;;;;;;;;;;5091961;28;20223;-63
2023/03/18 11:32:24;;;;;;;3.17;1.25;;;;;;;;;;5098257;27;20494;-64
2023/03/18 11:34:56;;;;;;;1.40;0.60;;;;;;;;;;5095934;27;20044;-64
2023/03/18 11:37:27;;;;;;;0.70;0.70;;;;;;;;;;5097671;27;20059;-64
2023/03/18 11:40:06;;;;;;;0.82;0.52;;;;;;;;;;5096406;27;20044;-64
2023/03/18 11:42:35;;;;;;;2.63;1.05;;;;;;;;;;5097215;28;20040;-63
2023/03/18 11:45:04;;;;;;;1.67;0.90;;;;;;;;;;5096015;28;20357;-64
2023/03/18 11:47:33;;;;;;;2.42;0.40;;;;;;;;;;5102655;28;20044;-65
2023/03/18 11:50:03;;;;;;;1.35;0.60;;;;;;;;;;5092985;28;20480;-68
2023/03/18 11:52:35;;;;;;;1.52;0.60;;;;;;;;;;5092772;28;20047;-67
2023/03/18 11:55:18;;;;;;;2.00;0.55;;;;;;;;;;5097843;28;20050;-67
2023/03/18 11:57:56;;;;;;;1.55;0.85;;;;;;;;;;5098003;28;21572;-67
2023/03/18 12:00:30;;;;;;;1.77;0.70;;;;;;;;;;5098426;28;20035;-67
2023/03/18 12:03:14;;;;;;;1.23;0.50;;;;;;;;;;5096275;28;20048;-67
2023/03/18 12:06:01;;;;;;;3.58;0.65;;;;;;;;;;5093509;28;20044;-67
2023/03/18 12:08:34;;;;;;;2.80;0.73;;;;;;;;;;5013234;28;20085;-67
2023/03/18 12:11:09;;;;;;;1.48;0.70;;;;;;;;;;5029708;28;20042;-67
2023/03/18 12:13:44;;;;;;;1.50;0.80;;;;;;;;;;5026191;28;20582;-67
2023/03/18 12:16:17;;;;;;;2.45;0.77;;;;;;;;;;5018852;28;20042;-67
2023/03/18 12:19:00;;;;;;;3.67;0.60;;;;;;;;;;5029007;28;20056;-67
2023/03/18 12:21:36;;;;;;;1.50;1.25;;;;;;;;;;5026214;28;20052;-67
2023/03/18 12:24:09;;;;;;;3.08;0.80;;;;;;;;;;5027969;28;20056;-67
2023/03/18 12:26:46;;;;;;;0.70;0.50;;;;;;;;;;5027037;28;20552;-67
2023/03/18 12:29:30;;;;;;;2.17;0.60;;;;;;;;;;5027834;28;20041;-67
2023/03/18 12:32:03;;;;;;;0.77;0.60;;;;;;;;;;5022181;28;20219;-67
2023/03/18 12:34:39;;;;;;;2.20;1.15;;;;;;;;;;5056407;28;20939;-68
2023/03/18 12:37:16;;;;;;;1.52;1.42;;;;;;;;;;5052779;28;20426;-67
2023/03/18 12:39:52;;;;;;;3.30;0.73;;;;;;;;;;5054746;28;20613;-67
2023/03/18 12:42:29;;;;;;;1.17;0.40;;;;;;;;;;5056364;28;20567;-68
2023/03/18 12:44:59;;;;;;;0.98;0.60;;;;;;;;;;5057387;28;20057;-67
2023/03/18 12:47:30;;;;;;;1.55;1.10;;;;;;;;;;5051078;28;20059;-67
2023/03/18 12:50:01;;;;;;;1.05;0.70;;;;;;;;;;5058903;28;20052;-67
2023/03/18 12:52:32;;;;;;;1.42;0.82;;;;;;;;;;5052639;28;20045;-68
2023/03/18 12:55:02;;;;;;;1.00;0.60;;;;;;;;;;5055540;28;20045;-67
2023/03/18 12:57:40;;;;;;;1.58;0.85;;;;;;;;;;5059053;28;20048;-67
2023/03/18 13:00:15;;;;;;;0.77;0.52;;;;;;;;;;5052931;28;20128;-67
2023/03/18 13:02:46;;;;;;;1.13;0.60;;;;;;;;;;5057098;28;20049;-66
2023/03/18 13:05:21;;;;;;;1.35;0.60;;;;;;;;;;5055940;28;20079;-66
2023/03/18 13:07:52;;;;;;;1.15;0.80;;;;;;;;;;5052502;28;20061;-64
2023/03/18 13:10:22;;;;;;;0.93;0.50;;;;;;;;;;5053463;28;20056;-65
2023/03/18 13:12:54;;;;;;;1.42;0.68;;;;;;;;;;5053667;28;20064;-65
2023/03/18 13:15:26;;;;;;;0.75;0.60;;;;;;;;;;5057110;28;20686;-65
2023/03/18 13:17:58;;;;;;;3.65;0.90;;;;;;;;;;5056163;28;20041;-67
2023/03/18 13:20:29;;;;;;;1.02;0.57;;;;;;;;;;5089562;28;20051;-64
2023/03/18 13:23:09;;;;;;;0.65;0.50;;;;;;;;;;5101670;28;20047;-64
2023/03/18 13:25:41;;;;;;;3.92;1.25;;;;;;;;;;5093470;28;20169;-66
2023/03/18 13:28:24;;;;;;;1.08;0.47;;;;;;;;;;5091897;28;20055;-65
2023/03/18 13:30:59;;;;;;;5.22;0.65;;;;;;;;;;5093342;28;20051;-65
2023/03/18 13:33:48;;;;;;;2.05;0.68;;;;;;;;;;5094080;28;20463;-66
2023/03/18 13:36:22;;;;;;;1.45;0.63;;;;;;;;;;5070917;27;20052;-63
2023/03/18 13:39:18;;;;;;;2.28;0.47;;;;;;;;;;5092238;28;20051;-67
2023/03/18 13:42:04;;;;;;;0.52;0.38;;;;;;;;;;5033260;28;20052;-66
2023/03/18 13:44:36;;;;;;;0.77;0.40;;;;;;;;;;5096672;28;20082;-65
2023/03/18 13:47:07;;;;;;;1.30;0.38;;;;;;;;;;5093209;28;20052;-66
2023/03/18 13:49:37;;;;;;;1.27;0.40;;;;;;;;;;5093321;28;20161;-65
2023/03/18 13:52:21;;;;;;;1.15;0.70;;;;;;;;;;5094550;28;20093;-64
2023/03/18 13:54:50;;;;;;;2.42;0.70;;;;;;;;;;5094171;28;20052;-65
2023/03/18 13:57:32;;;;;;;2.45;0.30;;;;;;;;;;5090537;28;20139;-65
2023/03/18 14:00:14;;;;;;;0.95;0.47;;;;;;;;;;5094361;28;20652;-65
2023/03/18 14:02:46;;;;;;;0.88;0.60;;;;;;;;;;5094547;28;20047;-66
2023/03/18 14:05:45;;;;;;;1.55;0.70;;;;;;;;;;5094947;28;20051;-67
2023/03/18 14:08:47;;;;;;;4.00;0.57;;;;;;;;;;5011270;28;20323;-65
2023/03/18 14:11:49;;;;;;;0.45;0.25;;;;;;;;;;5031415;28;20224;-66
2023/03/18 14:14:44;;;;;;;0.63;0.20;;;;;;;;;;5029180;28;20502;-65
2023/03/18 14:17:22;;;;;;;6.30;0.67;;;;;;;;;;5057500;28;20048;-68
2023/03/18 14:19:54;;;;;;;1.02;0.55;;;;;;;;;;5070156;28;20351;-68
2023/03/18 14:22:26;;;;;;;2.28;0.55;;;;;;;;;;5068751;28;20047;-68
2023/03/18 14:25:13;;;;;;;3.85;0.95;;;;;;;;;;5071782;28;20514;-68
2023/03/18 14:27:46;;;;;;;1.50;0.43;;;;;;;;;;5090201;28;20056;-66
2023/03/18 14:30:47;;;;;;;1.55;0.88;;;;;;;;;;5095590;28;20200;-66
2023/03/18 14:33:30;;;;;;;1.80;0.68;;;;;;;;;;5022602;28;20056;-67
2023/03/18 14:36:02;;;;;;;0.50;0.50;;;;;;;;;;5021188;28;20061;-67
2023/03/18 14:38:32;;;;;;;1.83;0.88;;;;;;;;;;5068924;28;20060;-67
2023/03/18 14:41:01;;;;;;;0.85;0.50;;;;;;;;;;5098002;27;20434;-67
2023/03/18 14:43:31;;;;;;;2.45;0.68;;;;;;;;;;5104713;28;20044;-66
2023/03/18 14:46:00;;;;;;;0.63;0.50;;;;;;;;;;5096326;28;20055;-69
2023/03/18 14:48:30;;;;;;;2.05;0.70;;;;;;;;;;5102486;28;20071;-69
2023/03/18 14:51:00;;;;;;;2.13;0.90;;;;;;;;;;5097905;28;20054;-69
2023/03/18 14:53:31;;;;;;;4.68;0.50;;;;;;;;;;5099693;27;20044;-69
2023/03/18 14:56:00;;;;;;;0.45;0.45;;;;;;;;;;5095320;27;20044;-69
2023/03/18 14:58:28;;;;;;;1.40;0.45;;;;;;;;;;5099770;28;20134;-69
2023/03/18 15:00:59;;;;;;;2.70;1.08;;;;;;;;;;5101647;28;20489;-69
2023/03/18 15:03:28;;;;;;;3.28;1.00;;;;;;;;;;5092164;28;20040;-69
2023/03/18 15:05:59;;;;;;;0.63;0.45;;;;;;;;;;5094072;27;20047;-69